sensor_id;sensor_type;location;lat;lon;timestamp;temperature;humidity
66608;DHT22;53462;39.616;8.824;2022-10-19T00:02:09;17.30;99.90
66608;DHT22;53462;39.616;8.824;2022-10-19T00:04:35;17.20;99.90
66608;DHT22;53462;39.616;8.824;2022-10-19T00:07:01;17.20;99.90
66608;DHT22;53462;39.616;8.824;2022-10-19T00:09:27;17.20;99.90
66608;DHT22;53462;39.616;8.824;2022-10-19T00:11:53;17.30;99.90
66608;DHT22;53462;39.616;8.824;2022-10-19T00:14:22;17.20;99.90
66608;DHT22;53462;39.616;8.824;2022-10-19T00:16:49;17.10;99.90
66608;DHT22;53462;39.616;8.824;2022-10-19T00:19:21;17.10;99.90
66608;DHT22;53462;39.616;8.824;2022-10-19T00:21:48;17.00;99.90
66608;DHT22;53462;39.616;8.824;2022-10-19T00:24:14;17.00;99.90
66608;DHT22;53462;39.616;8.824;2022-10-19T00:26:41;17.00;99.90
66608;DHT22;53462;39.616;8.824;2022-10-19T00:29:07;16.90;99.90
66608;DHT22;53462;39.616;8.824;2022-10-19T00:31:33;17.00;99.90
66608;DHT22;53462;39.616;8.824;2022-10-19T00:33:59;16.90;99.90
66608;DHT22;53462;39.616;8.824;2022-10-19T00:36:28;16.90;99.90
66608;DHT22;53462;39.616;8.824;2022-10-19T00:38:55;16.90;99.90
66608;DHT22;53462;39.616;8.824;2022-10-19T00:41:23;16.90;99.90
66608;DHT22;53462;39.616;8.824;2022-10-19T00:46:27;16.80;99.90
66608;DHT22;53462;39.616;8.824;2022-10-19T00:48:57;16.80;99.90
66608;DHT22;53462;39.616;8.824;2022-10-19T00:51:25;16.80;99.90
66608;DHT22;53462;39.616;8.824;2022-10-19T00:53:52;16.80;99.90
66608;DHT22;53462;39.616;8.824;2022-10-19T00:56:19;16.80;99.90
66608;DHT22;53462;39.616;8.824;2022-10-19T00:58:45;16.70;99.90
66608;DHT22;53462;39.616;8.824;2022-10-19T01:01:15;16.70;99.90
66608;DHT22;53462;39.616;8.824;2022-10-19T01:03:42;16.70;99.90
66608;DHT22;53462;39.616;8.824;2022-10-19T01:06:09;16.70;99.90
66608;DHT22;53462;39.616;8.824;2022-10-19T01:08:36;16.60;99.90
66608;DHT22;53462;39.616;8.824;2022-10-19T01:11:17;16.60;99.90
66608;DHT22;53462;39.616;8.824;2022-10-19T01:14:03;16.60;99.90
66608;DHT22;53462;39.616;8.824;2022-10-19T01:25:22;16.60;99.90
66608;DHT22;53462;39.616;8.824;2022-10-19T01:33:37;16.70;99.90
66608;DHT22;53462;39.616;8.824;2022-10-19T01:36:27;16.80;99.90
66608;DHT22;53462;39.616;8.824;2022-10-19T01:42:02;17.00;99.90
66608;DHT22;53462;39.616;8.824;2022-10-19T01:44:44;17.10;99.90
66608;DHT22;53462;39.616;8.824;2022-10-19T01:47:19;17.10;99.90
66608;DHT22;53462;39.616;8.824;2022-10-19T01:49:55;17.20;99.90
66608;DHT22;53462;39.616;8.824;2022-10-19T01:52:24;17.20;99.90
66608;DHT22;53462;39.616;8.824;2022-10-19T01:54:54;17.20;99.90
66608;DHT22;53462;39.616;8.824;2022-10-19T01:57:33;17.20;99.90
66608;DHT22;53462;39.616;8.824;2022-10-19T02:00:03;17.20;99.90
66608;DHT22;53462;39.616;8.824;2022-10-19T02:02:41;17.30;99.90
66608;DHT22;53462;39.616;8.824;2022-10-19T02:05:09;17.40;99.90
66608;DHT22;53462;39.616;8.824;2022-10-19T02:07:37;17.60;99.90
66608;DHT22;53462;39.616;8.824;2022-10-19T02:10:04;17.70;99.90
66608;DHT22;53462;39.616;8.824;2022-10-19T02:12:30;17.80;99.90
66608;DHT22;53462;39.616;8.824;2022-10-19T02:14:59;17.90;99.90
66608;DHT22;53462;39.616;8.824;2022-10-19T02:17:30;18.10;99.90
66608;DHT22;53462;39.616;8.824;2022-10-19T02:19:57;18.20;99.90
66608;DHT22;53462;39.616;8.824;2022-10-19T02:22:23;18.20;99.90
66608;DHT22;53462;39.616;8.824;2022-10-19T02:24:49;18.20;99.90
66608;DHT22;53462;39.616;8.824;2022-10-19T02:27:15;18.30;99.90
66608;DHT22;53462;39.616;8.824;2022-10-19T02:29:42;18.40;99.90
66608;DHT22;53462;39.616;8.824;2022-10-19T02:32:08;18.50;99.90
66608;DHT22;53462;39.616;8.824;2022-10-19T02:34:35;18.40;99.90
66608;DHT22;53462;39.616;8.824;2022-10-19T02:37:02;18.50;99.90
66608;DHT22;53462;39.616;8.824;2022-10-19T02:39:28;18.50;99.90
66608;DHT22;53462;39.616;8.824;2022-10-19T02:42:11;18.60;99.90
66608;DHT22;53462;39.616;8.824;2022-10-19T02:44:57;18.50;99.90
66608;DHT22;53462;39.616;8.824;2022-10-19T02:47:29;18.60;99.90
66608;DHT22;53462;39.616;8.824;2022-10-19T02:49:56;18.60;99.90
66608;DHT22;53462;39.616;8.824;2022-10-19T02:52:22;18.60;99.90
66608;DHT22;53462;39.616;8.824;2022-10-19T02:54:48;18.60;99.90
66608;DHT22;53462;39.616;8.824;2022-10-19T02:57:20;18.70;99.90
66608;DHT22;53462;39.616;8.824;2022-10-19T02:59:46;18.60;99.90
66608;DHT22;53462;39.616;8.824;2022-10-19T03:02:13;18.60;99.90
66608;DHT22;53462;39.616;8.824;2022-10-19T03:04:39;18.60;99.90
66608;DHT22;53462;39.616;8.824;2022-10-19T03:07:08;18.60;99.90
66608;DHT22;53462;39.616;8.824;2022-10-19T03:09:35;18.50;99.90
66608;DHT22;53462;39.616;8.824;2022-10-19T03:12:01;18.60;99.90
66608;DHT22;53462;39.616;8.824;2022-10-19T03:14:27;18.60;99.90
66608;DHT22;53462;39.616;8.824;2022-10-19T03:16:53;18.60;99.90
66608;DHT22;53462;39.616;8.824;2022-10-19T03:19:19;18.60;99.90
66608;DHT22;53462;39.616;8.824;2022-10-19T03:21:45;18.60;99.90
66608;DHT22;53462;39.616;8.824;2022-10-19T03:24:11;18.50;99.90
66608;DHT22;53462;39.616;8.824;2022-10-19T03:26:37;18.40;99.90
66608;DHT22;53462;39.616;8.824;2022-10-19T03:29:03;18.30;99.90
66608;DHT22;53462;39.616;8.824;2022-10-19T03:31:29;18.10;99.90
66608;DHT22;53462;39.616;8.824;2022-10-19T03:33:55;18.00;99.90
66608;DHT22;53462;39.616;8.824;2022-10-19T03:36:29;17.90;99.90
66608;DHT22;53462;39.616;8.824;2022-10-19T03:38:57;17.80;99.90
66608;DHT22;53462;39.616;8.824;2022-10-19T03:41:25;17.80;99.90
66608;DHT22;53462;39.616;8.824;2022-10-19T03:43:52;17.70;99.90
66608;DHT22;53462;39.616;8.824;2022-10-19T03:46:18;17.70;99.90
66608;DHT22;53462;39.616;8.824;2022-10-19T03:48:44;17.60;99.90
66608;DHT22;53462;39.616;8.824;2022-10-19T03:51:13;17.60;99.90
66608;DHT22;53462;39.616;8.824;2022-10-19T03:53:40;17.50;99.90
66608;DHT22;53462;39.616;8.824;2022-10-19T03:56:17;17.40;99.90
66608;DHT22;53462;39.616;8.824;2022-10-19T03:58:45;17.30;99.90
66608;DHT22;53462;39.616;8.824;2022-10-19T04:01:19;17.30;99.90
66608;DHT22;53462;39.616;8.824;2022-10-19T04:03:46;17.40;99.90
66608;DHT22;53462;39.616;8.824;2022-10-19T04:06:15;17.40;99.90
66608;DHT22;53462;39.616;8.824;2022-10-19T04:08:42;17.30;99.90
66608;DHT22;53462;39.616;8.824;2022-10-19T04:11:13;17.30;99.90
66608;DHT22;53462;39.616;8.824;2022-10-19T04:13:39;17.20;99.90
66608;DHT22;53462;39.616;8.824;2022-10-19T04:16:05;17.20;99.90
66608;DHT22;53462;39.616;8.824;2022-10-19T04:18:32;17.20;99.90
66608;DHT22;53462;39.616;8.824;2022-10-19T04:21:00;17.10;99.90
66608;DHT22;53462;39.616;8.824;2022-10-19T04:23:31;17.10;99.90
66608;DHT22;53462;39.616;8.824;2022-10-19T04:26:06;17.00;99.90
66608;DHT22;53462;39.616;8.824;2022-10-19T04:28:33;17.00;99.90
66608;DHT22;53462;39.616;8.824;2022-10-19T04:31:03;17.00;99.90
66608;DHT22;53462;39.616;8.824;2022-10-19T04:33:30;17.00;99.90
66608;DHT22;53462;39.616;8.824;2022-10-19T04:36:06;16.90;99.90
66608;DHT22;53462;39.616;8.824;2022-10-19T04:38:33;16.90;99.90
66608;DHT22;53462;39.616;8.824;2022-10-19T04:41:06;16.80;99.90
66608;DHT22;53462;39.616;8.824;2022-10-19T04:43:32;16.80;99.90
66608;DHT22;53462;39.616;8.824;2022-10-19T04:46:06;16.80;99.90
66608;DHT22;53462;39.616;8.824;2022-10-19T04:48:34;16.70;99.90
66608;DHT22;53462;39.616;8.824;2022-10-19T04:51:00;16.70;99.90
66608;DHT22;53462;39.616;8.824;2022-10-19T04:53:26;16.60;99.90
66608;DHT22;53462;39.616;8.824;2022-10-19T04:55:52;16.60;99.90
66608;DHT22;53462;39.616;8.824;2022-10-19T04:58:18;16.70;99.90
66608;DHT22;53462;39.616;8.824;2022-10-19T05:00:43;16.70;99.90
66608;DHT22;53462;39.616;8.824;2022-10-19T05:03:10;16.60;99.90
66608;DHT22;53462;39.616;8.824;2022-10-19T05:05:36;16.60;99.90
66608;DHT22;53462;39.616;8.824;2022-10-19T05:08:02;16.60;99.90
66608;DHT22;53462;39.616;8.824;2022-10-19T05:10:28;16.50;99.90
66608;DHT22;53462;39.616;8.824;2022-10-19T05:12:54;16.40;99.90
66608;DHT22;53462;39.616;8.824;2022-10-19T05:15:20;16.40;99.90
66608;DHT22;53462;39.616;8.824;2022-10-19T05:17:46;16.30;99.90
66608;DHT22;53462;39.616;8.824;2022-10-19T05:20:12;16.40;99.90
66608;DHT22;53462;39.616;8.824;2022-10-19T05:22:38;16.40;99.90
66608;DHT22;53462;39.616;8.824;2022-10-19T05:25:05;16.40;99.90
66608;DHT22;53462;39.616;8.824;2022-10-19T05:27:31;16.40;99.90
66608;DHT22;53462;39.616;8.824;2022-10-19T05:29:57;16.40;99.90
66608;DHT22;53462;39.616;8.824;2022-10-19T05:32:23;16.40;99.90
66608;DHT22;53462;39.616;8.824;2022-10-19T05:34:49;16.30;99.90
66608;DHT22;53462;39.616;8.824;2022-10-19T05:37:16;16.40;99.90
66608;DHT22;53462;39.616;8.824;2022-10-19T05:39:42;16.30;99.90
66608;DHT22;53462;39.616;8.824;2022-10-19T05:42:08;16.30;99.90
66608;DHT22;53462;39.616;8.824;2022-10-19T05:44:34;16.30;99.90
66608;DHT22;53462;39.616;8.824;2022-10-19T05:47:00;16.30;99.90
66608;DHT22;53462;39.616;8.824;2022-10-19T05:49:26;16.30;99.90
66608;DHT22;53462;39.616;8.824;2022-10-19T05:51:52;16.30;99.90
66608;DHT22;53462;39.616;8.824;2022-10-19T05:54:19;16.30;99.90
66608;DHT22;53462;39.616;8.824;2022-10-19T05:56:45;16.40;99.90
66608;DHT22;53462;39.616;8.824;2022-10-19T05:59:17;16.30;99.90
66608;DHT22;53462;39.616;8.824;2022-10-19T06:01:45;16.30;99.90
66608;DHT22;53462;39.616;8.824;2022-10-19T06:04:11;16.30;99.90
66608;DHT22;53462;39.616;8.824;2022-10-19T06:06:38;16.30;99.90
66608;DHT22;53462;39.616;8.824;2022-10-19T06:09:05;16.30;99.90
66608;DHT22;53462;39.616;8.824;2022-10-19T06:11:34;16.30;99.90
66608;DHT22;53462;39.616;8.824;2022-10-19T06:14:02;16.40;99.90
66608;DHT22;53462;39.616;8.824;2022-10-19T06:16:29;16.50;99.90
66608;DHT22;53462;39.616;8.824;2022-10-19T06:18:56;16.60;99.90
66608;DHT22;53462;39.616;8.824;2022-10-19T06:21:25;16.80;99.90
66608;DHT22;53462;39.616;8.824;2022-10-19T06:23:52;16.80;99.90
66608;DHT22;53462;39.616;8.824;2022-10-19T06:26:19;16.90;99.90
66608;DHT22;53462;39.616;8.824;2022-10-19T06:28:46;17.00;99.90
66608;DHT22;53462;39.616;8.824;2022-10-19T06:31:12;17.20;99.90
66608;DHT22;53462;39.616;8.824;2022-10-19T06:33:40;17.40;99.90
66608;DHT22;53462;39.616;8.824;2022-10-19T06:36:27;17.60;99.90
66608;DHT22;53462;39.616;8.824;2022-10-19T06:38:54;17.60;99.90
66608;DHT22;53462;39.616;8.824;2022-10-19T06:41:21;18.20;99.90
66608;DHT22;53462;39.616;8.824;2022-10-19T06:43:51;19.00;96.80
66608;DHT22;53462;39.616;8.824;2022-10-19T06:46:17;19.00;91.50
66608;DHT22;53462;39.616;8.824;2022-10-19T06:48:52;18.60;92.20
66608;DHT22;53462;39.616;8.824;2022-10-19T06:51:19;18.50;93.70
66608;DHT22;53462;39.616;8.824;2022-10-19T06:53:45;18.50;94.20
66608;DHT22;53462;39.616;8.824;2022-10-19T06:56:11;18.70;93.90
66608;DHT22;53462;39.616;8.824;2022-10-19T06:58:37;19.00;93.40
66608;DHT22;53462;39.616;8.824;2022-10-19T07:01:05;19.30;91.50
66608;DHT22;53462;39.616;8.824;2022-10-19T07:03:34;20.00;90.40
66608;DHT22;53462;39.616;8.824;2022-10-19T07:06:02;22.10;83.20
66608;DHT22;53462;39.616;8.824;2022-10-19T07:08:30;23.10;74.90
66608;DHT22;53462;39.616;8.824;2022-10-19T07:10:59;23.20;74.30
66608;DHT22;53462;39.616;8.824;2022-10-19T07:13:26;22.30;76.70
66608;DHT22;53462;39.616;8.824;2022-10-19T07:16:00;21.90;79.20
66608;DHT22;53462;39.616;8.824;2022-10-19T07:18:28;22.20;79.50
66608;DHT22;53462;39.616;8.824;2022-10-19T07:20:58;21.80;78.90
66608;DHT22;53462;39.616;8.824;2022-10-19T07:23:26;22.40;79.00
66608;DHT22;53462;39.616;8.824;2022-10-19T07:25:53;23.60;74.80
66608;DHT22;53462;39.616;8.824;2022-10-19T07:28:22;25.50;68.50
66608;DHT22;53462;39.616;8.824;2022-10-19T07:30:48;26.60;63.50
66608;DHT22;53462;39.616;8.824;2022-10-19T07:33:14;27.20;60.80
66608;DHT22;53462;39.616;8.824;2022-10-19T07:35:40;27.90;58.70
66608;DHT22;53462;39.616;8.824;2022-10-19T07:38:06;27.10;59.10
66608;DHT22;53462;39.616;8.824;2022-10-19T07:40:33;26.00;62.80
66608;DHT22;53462;39.616;8.824;2022-10-19T07:42:59;26.00;63.60
66608;DHT22;53462;39.616;8.824;2022-10-19T07:45:25;26.80;61.80
66608;DHT22;53462;39.616;8.824;2022-10-19T07:47:54;28.00;57.90
66608;DHT22;53462;39.616;8.824;2022-10-19T07:50:21;28.60;55.40
66608;DHT22;53462;39.616;8.824;2022-10-19T07:52:50;29.70;53.40
66608;DHT22;53462;39.616;8.824;2022-10-19T07:55:17;30.00;52.00
66608;DHT22;53462;39.616;8.824;2022-10-19T07:57:46;30.40;50.40
66608;DHT22;53462;39.616;8.824;2022-10-19T08:00:14;30.70;49.40
66608;DHT22;53462;39.616;8.824;2022-10-19T08:02:39;30.90;49.20
66608;DHT22;53462;39.616;8.824;2022-10-19T08:05:06;31.30;48.50
66608;DHT22;53462;39.616;8.824;2022-10-19T08:07:32;31.40;48.00
66608;DHT22;53462;39.616;8.824;2022-10-19T08:09:58;32.10;47.20
66608;DHT22;53462;39.616;8.824;2022-10-19T08:12:24;32.30;46.30
66608;DHT22;53462;39.616;8.824;2022-10-19T08:14:51;32.50;45.50
66608;DHT22;53462;39.616;8.824;2022-10-19T08:17:17;32.50;45.60
66608;DHT22;53462;39.616;8.824;2022-10-19T08:19:44;32.10;46.10
66608;DHT22;53462;39.616;8.824;2022-10-19T08:22:10;32.30;45.90
66608;DHT22;53462;39.616;8.824;2022-10-19T08:24:36;32.80;44.80
66608;DHT22;53462;39.616;8.824;2022-10-19T08:27:02;33.10;44.70
66608;DHT22;53462;39.616;8.824;2022-10-19T08:29:28;33.40;44.30
66608;DHT22;53462;39.616;8.824;2022-10-19T08:31:54;33.50;43.50
66608;DHT22;53462;39.616;8.824;2022-10-19T08:34:20;33.70;43.30
66608;DHT22;53462;39.616;8.824;2022-10-19T08:36:46;33.90;42.80
66608;DHT22;53462;39.616;8.824;2022-10-19T08:39:13;33.80;42.60
66608;DHT22;53462;39.616;8.824;2022-10-19T08:49:52;34.70;40.40
66608;DHT22;53462;39.616;8.824;2022-10-19T08:52:21;35.00;40.60
66608;DHT22;53462;39.616;8.824;2022-10-19T08:54:55;35.10;40.30
66608;DHT22;53462;39.616;8.824;2022-10-19T08:57:53;34.90;39.90
66608;DHT22;53462;39.616;8.824;2022-10-19T09:00:40;35.20;40.30
66608;DHT22;53462;39.616;8.824;2022-10-19T09:08:45;35.40;40.10
66608;DHT22;53462;39.616;8.824;2022-10-19T09:11:11;35.40;40.00
66608;DHT22;53462;39.616;8.824;2022-10-19T09:13:45;35.80;39.60
66608;DHT22;53462;39.616;8.824;2022-10-19T09:16:17;35.70;39.10
66608;DHT22;53462;39.616;8.824;2022-10-19T09:18:44;36.00;38.90
66608;DHT22;53462;39.616;8.824;2022-10-19T09:26:17;35.90;39.30
66608;DHT22;53462;39.616;8.824;2022-10-19T09:29:04;35.90;39.40
66608;DHT22;53462;39.616;8.824;2022-10-19T09:31:33;35.10;40.60
66608;DHT22;53462;39.616;8.824;2022-10-19T09:34:11;33.80;42.40
66608;DHT22;53462;39.616;8.824;2022-10-19T09:36:44;32.00;46.40
66608;DHT22;53462;39.616;8.824;2022-10-19T09:39:11;30.50;49.20
66608;DHT22;53462;39.616;8.824;2022-10-19T09:41:48;29.80;51.60
66608;DHT22;53462;39.616;8.824;2022-10-19T09:44:15;29.90;51.80
66608;DHT22;53462;39.616;8.824;2022-10-19T09:46:49;30.00;51.30
66608;DHT22;53462;39.616;8.824;2022-10-19T09:49:18;29.90;50.90
66608;DHT22;53462;39.616;8.824;2022-10-19T09:51:50;29.30;51.90
66608;DHT22;53462;39.616;8.824;2022-10-19T09:54:37;29.80;51.20
66608;DHT22;53462;39.616;8.824;2022-10-19T09:57:04;29.60;52.00
66608;DHT22;53462;39.616;8.824;2022-10-19T09:59:34;29.60;52.40
66608;DHT22;53462;39.616;8.824;2022-10-19T10:02:17;29.30;52.00
66608;DHT22;53462;39.616;8.824;2022-10-19T10:04:55;29.50;52.60
66608;DHT22;53462;39.616;8.824;2022-10-19T10:07:26;29.70;52.00
66608;DHT22;53462;39.616;8.824;2022-10-19T10:09:57;29.30;51.20
66608;DHT22;53462;39.616;8.824;2022-10-19T10:12:25;29.10;52.30
66608;DHT22;53462;39.616;8.824;2022-10-19T10:14:52;30.00;51.10
66608;DHT22;53462;39.616;8.824;2022-10-19T10:17:24;30.30;50.60
66608;DHT22;53462;39.616;8.824;2022-10-19T10:22:29;30.10;50.10
66608;DHT22;53462;39.616;8.824;2022-10-19T10:24:56;30.20;50.70
66608;DHT22;53462;39.616;8.824;2022-10-19T10:27:34;30.50;49.10
66608;DHT22;53462;39.616;8.824;2022-10-19T10:30:18;30.20;50.50
66608;DHT22;53462;39.616;8.824;2022-10-19T10:32:50;30.30;49.10
66608;DHT22;53462;39.616;8.824;2022-10-19T10:35:23;30.20;49.70
66608;DHT22;53462;39.616;8.824;2022-10-19T10:37:51;30.30;47.90
66608;DHT22;53462;39.616;8.824;2022-10-19T10:40:30;30.40;48.20
66608;DHT22;53462;39.616;8.824;2022-10-19T10:43:16;29.80;49.20
66608;DHT22;53462;39.616;8.824;2022-10-19T10:45:46;29.60;50.00
66608;DHT22;53462;39.616;8.824;2022-10-19T10:50:46;29.30;50.30
66608;DHT22;53462;39.616;8.824;2022-10-19T10:53:40;30.20;49.70
66608;DHT22;53462;39.616;8.824;2022-10-19T10:56:22;29.40;49.20
66608;DHT22;53462;39.616;8.824;2022-10-19T10:59:00;29.20;51.30
66608;DHT22;53462;39.616;8.824;2022-10-19T11:01:39;29.00;50.90
66608;DHT22;53462;39.616;8.824;2022-10-19T11:04:18;29.00;51.80
66608;DHT22;53462;39.616;8.824;2022-10-19T11:06:56;29.10;51.40
66608;DHT22;53462;39.616;8.824;2022-10-19T11:09:30;29.20;51.00
66608;DHT22;53462;39.616;8.824;2022-10-19T11:12:02;30.00;49.90
66608;DHT22;53462;39.616;8.824;2022-10-19T11:14:37;29.80;49.20
66608;DHT22;53462;39.616;8.824;2022-10-19T11:17:26;30.20;48.30
66608;DHT22;53462;39.616;8.824;2022-10-19T11:19:52;30.00;48.20
66608;DHT22;53462;39.616;8.824;2022-10-19T11:22:39;30.30;48.30
66608;DHT22;53462;39.616;8.824;2022-10-19T11:45:25;30.10;46.30
66608;DHT22;53462;39.616;8.824;2022-10-19T11:50:47;30.30;46.50
66608;DHT22;53462;39.616;8.824;2022-10-19T12:02:02;30.30;46.20
66608;DHT22;53462;39.616;8.824;2022-10-19T12:12:40;29.70;45.10
66608;DHT22;53462;39.616;8.824;2022-10-19T12:17:37;29.80;45.70
66608;DHT22;53462;39.616;8.824;2022-10-19T12:22:41;29.80;46.20
66608;DHT22;53462;39.616;8.824;2022-10-19T12:25:13;29.80;46.20
66608;DHT22;53462;39.616;8.824;2022-10-19T12:27:41;30.40;44.10
66608;DHT22;53462;39.616;8.824;2022-10-19T12:30:13;30.70;44.80
66608;DHT22;53462;39.616;8.824;2022-10-19T12:33:08;30.10;45.00
66608;DHT22;53462;39.616;8.824;2022-10-19T12:35:51;30.20;44.30
66608;DHT22;53462;39.616;8.824;2022-10-19T12:38:28;30.50;44.10
66608;DHT22;53462;39.616;8.824;2022-10-19T12:44:28;30.00;45.80
66608;DHT22;53462;39.616;8.824;2022-10-19T12:47:06;30.10;46.10
66608;DHT22;53462;39.616;8.824;2022-10-19T12:49:33;30.00;45.70
66608;DHT22;53462;39.616;8.824;2022-10-19T12:52:01;30.00;47.10
66608;DHT22;53462;39.616;8.824;2022-10-19T12:54:37;29.80;47.10
66608;DHT22;53462;39.616;8.824;2022-10-19T12:57:25;29.70;47.60
66608;DHT22;53462;39.616;8.824;2022-10-19T13:00:05;29.80;47.60
66608;DHT22;53462;39.616;8.824;2022-10-19T13:02:43;30.10;46.90
66608;DHT22;53462;39.616;8.824;2022-10-19T13:05:22;29.80;47.60
66608;DHT22;53462;39.616;8.824;2022-10-19T13:07:49;29.60;48.20
66608;DHT22;53462;39.616;8.824;2022-10-19T13:10:22;29.50;49.10
66608;DHT22;53462;39.616;8.824;2022-10-19T13:12:49;29.50;49.30
66608;DHT22;53462;39.616;8.824;2022-10-19T13:18:00;30.00;48.80
66608;DHT22;53462;39.616;8.824;2022-10-19T13:25:33;29.90;48.70
66608;DHT22;53462;39.616;8.824;2022-10-19T13:40:59;29.50;50.20
66608;DHT22;53462;39.616;8.824;2022-10-19T13:54:21;29.30;52.20
66608;DHT22;53462;39.616;8.824;2022-10-19T14:10:46;28.70;54.40
66608;DHT22;53462;39.616;8.824;2022-10-19T14:13:15;28.60;54.30
66608;DHT22;53462;39.616;8.824;2022-10-19T14:15:51;28.50;53.80
66608;DHT22;53462;39.616;8.824;2022-10-19T14:18:35;28.40;54.60
66608;DHT22;53462;39.616;8.824;2022-10-19T14:21:07;28.40;54.80
66608;DHT22;53462;39.616;8.824;2022-10-19T14:23:35;28.20;55.00
66608;DHT22;53462;39.616;8.824;2022-10-19T14:26:09;28.10;54.90
66608;DHT22;53462;39.616;8.824;2022-10-19T14:28:36;28.10;54.20
66608;DHT22;53462;39.616;8.824;2022-10-19T14:31:08;28.00;54.20
66608;DHT22;53462;39.616;8.824;2022-10-19T14:33:38;28.00;54.40
66608;DHT22;53462;39.616;8.824;2022-10-19T14:36:13;27.80;54.00
66608;DHT22;53462;39.616;8.824;2022-10-19T14:38:42;27.70;54.70
66608;DHT22;53462;39.616;8.824;2022-10-19T14:43:53;27.50;52.90
66608;DHT22;53462;39.616;8.824;2022-10-19T14:46:19;27.40;53.00
66608;DHT22;53462;39.616;8.824;2022-10-19T14:48:47;27.30;53.80
66608;DHT22;53462;39.616;8.824;2022-10-19T14:53:56;26.90;56.30
66608;DHT22;53462;39.616;8.824;2022-10-19T14:56:42;26.70;57.20
66608;DHT22;53462;39.616;8.824;2022-10-19T14:59:30;26.60;58.40
66608;DHT22;53462;39.616;8.824;2022-10-19T15:02:00;26.60;59.80
66608;DHT22;53462;39.616;8.824;2022-10-19T15:04:34;26.50;60.30
66608;DHT22;53462;39.616;8.824;2022-10-19T15:07:12;26.20;61.10
66608;DHT22;53462;39.616;8.824;2022-10-19T15:09:46;26.10;60.60
66608;DHT22;53462;39.616;8.824;2022-10-19T15:12:16;26.00;62.10
66608;DHT22;53462;39.616;8.824;2022-10-19T15:14:44;25.90;64.10
66608;DHT22;53462;39.616;8.824;2022-10-19T15:19:51;25.70;63.20
66608;DHT22;53462;39.616;8.824;2022-10-19T15:22:20;25.50;64.40
66608;DHT22;53462;39.616;8.824;2022-10-19T15:27:50;25.30;64.50
66608;DHT22;53462;39.616;8.824;2022-10-19T15:35:30;24.90;65.20
66608;DHT22;53462;39.616;8.824;2022-10-19T15:40:42;24.70;66.20
66608;DHT22;53462;39.616;8.824;2022-10-19T15:53:57;24.00;68.20
66608;DHT22;53462;39.616;8.824;2022-10-19T15:56:25;24.00;68.80
66608;DHT22;53462;39.616;8.824;2022-10-19T15:58:53;23.90;69.60
66608;DHT22;53462;39.616;8.824;2022-10-19T16:01:23;23.80;70.50
66608;DHT22;53462;39.616;8.824;2022-10-19T16:03:51;23.60;71.30
66608;DHT22;53462;39.616;8.824;2022-10-19T16:06:18;23.50;71.30
66608;DHT22;53462;39.616;8.824;2022-10-19T16:08:44;23.40;71.90
66608;DHT22;53462;39.616;8.824;2022-10-19T16:11:12;23.50;71.80
66608;DHT22;53462;39.616;8.824;2022-10-19T16:13:38;23.30;72.40
66608;DHT22;53462;39.616;8.824;2022-10-19T16:16:05;23.20;73.40
66608;DHT22;53462;39.616;8.824;2022-10-19T16:18:32;23.10;74.00
66608;DHT22;53462;39.616;8.824;2022-10-19T16:20:58;23.10;74.20
66608;DHT22;53462;39.616;8.824;2022-10-19T16:23:24;23.10;74.30
66608;DHT22;53462;39.616;8.824;2022-10-19T16:25:51;23.00;74.70
66608;DHT22;53462;39.616;8.824;2022-10-19T16:28:18;22.80;75.00
66608;DHT22;53462;39.616;8.824;2022-10-19T16:30:44;22.70;75.50
66608;DHT22;53462;39.616;8.824;2022-10-19T16:33:10;22.60;76.10
66608;DHT22;53462;39.616;8.824;2022-10-19T16:35:36;22.60;76.30
66608;DHT22;53462;39.616;8.824;2022-10-19T16:38:02;22.50;76.30
66608;DHT22;53462;39.616;8.824;2022-10-19T16:40:28;22.40;76.30
66608;DHT22;53462;39.616;8.824;2022-10-19T16:42:54;22.30;76.70
66608;DHT22;53462;39.616;8.824;2022-10-19T16:45:23;22.20;77.10
66608;DHT22;53462;39.616;8.824;2022-10-19T16:47:50;22.10;77.40
66608;DHT22;53462;39.616;8.824;2022-10-19T16:50:16;22.10;77.80
66608;DHT22;53462;39.616;8.824;2022-10-19T16:52:42;22.00;78.10
66608;DHT22;53462;39.616;8.824;2022-10-19T16:55:08;21.90;78.40
66608;DHT22;53462;39.616;8.824;2022-10-19T16:57:34;21.80;79.10
66608;DHT22;53462;39.616;8.824;2022-10-19T17:00:03;21.80;79.70
66608;DHT22;53462;39.616;8.824;2022-10-19T17:02:29;21.80;80.20
66608;DHT22;53462;39.616;8.824;2022-10-19T17:04:55;21.70;80.80
66608;DHT22;53462;39.616;8.824;2022-10-19T17:07:21;21.60;81.30
66608;DHT22;53462;39.616;8.824;2022-10-19T17:09:47;21.70;81.80
66608;DHT22;53462;39.616;8.824;2022-10-19T17:12:13;21.60;82.30
66608;DHT22;53462;39.616;8.824;2022-10-19T17:14:40;21.60;82.60
66608;DHT22;53462;39.616;8.824;2022-10-19T17:17:08;21.60;82.80
66608;DHT22;53462;39.616;8.824;2022-10-19T17:19:35;21.50;83.10
66608;DHT22;53462;39.616;8.824;2022-10-19T17:22:02;21.50;82.90
66608;DHT22;53462;39.616;8.824;2022-10-19T17:24:29;21.50;83.20
66608;DHT22;53462;39.616;8.824;2022-10-19T17:26:56;21.50;83.30
66608;DHT22;53462;39.616;8.824;2022-10-19T17:29:25;21.40;83.60
66608;DHT22;53462;39.616;8.824;2022-10-19T17:31:51;21.40;83.70
66608;DHT22;53462;39.616;8.824;2022-10-19T17:34:17;21.40;83.90
66608;DHT22;53462;39.616;8.824;2022-10-19T17:36:45;21.30;84.10
66608;DHT22;53462;39.616;8.824;2022-10-19T17:39:14;21.30;84.40
66608;DHT22;53462;39.616;8.824;2022-10-19T17:41:44;21.20;84.70
66608;DHT22;53462;39.616;8.824;2022-10-19T17:44:10;21.20;85.10
66608;DHT22;53462;39.616;8.824;2022-10-19T17:46:36;21.10;85.40
66608;DHT22;53462;39.616;8.824;2022-10-19T17:49:03;21.10;85.30
66608;DHT22;53462;39.616;8.824;2022-10-19T17:51:33;21.00;85.40
66608;DHT22;53462;39.616;8.824;2022-10-19T17:54:05;21.00;86.00
66608;DHT22;53462;39.616;8.824;2022-10-19T17:56:33;20.90;86.30
66608;DHT22;53462;39.616;8.824;2022-10-19T17:58:59;20.80;86.60
66608;DHT22;53462;39.616;8.824;2022-10-19T18:01:28;20.80;87.00
66608;DHT22;53462;39.616;8.824;2022-10-19T18:03:55;20.80;87.20
66608;DHT22;53462;39.616;8.824;2022-10-19T18:06:24;20.70;87.60
66608;DHT22;53462;39.616;8.824;2022-10-19T18:08:52;20.70;87.90
66608;DHT22;53462;39.616;8.824;2022-10-19T18:11:27;20.70;87.80
66608;DHT22;53462;39.616;8.824;2022-10-19T18:13:55;20.70;88.00
66608;DHT22;53462;39.616;8.824;2022-10-19T18:16:41;20.60;88.30
66608;DHT22;53462;39.616;8.824;2022-10-19T18:19:09;20.60;88.70
66608;DHT22;53462;39.616;8.824;2022-10-19T18:21:40;20.50;88.80
66608;DHT22;53462;39.616;8.824;2022-10-19T18:24:09;20.50;89.10
66608;DHT22;53462;39.616;8.824;2022-10-19T18:26:37;20.50;89.60
66608;DHT22;53462;39.616;8.824;2022-10-19T18:29:16;20.50;90.00
66608;DHT22;53462;39.616;8.824;2022-10-19T18:31:43;20.40;90.20
66608;DHT22;53462;39.616;8.824;2022-10-19T18:34:14;20.40;90.70